Time;durP1;ratioP1;P1;durP2;ratioP2;P2;SDS_P1;SDS_P2;PMS_P1;PMS_P2;Temp;Humidity;BMP_temperature;BMP_pressure;BME280_temperature;BME280_humidity;BME280_pressure;Samples;Min_cycle;Max_cycle;Signal;HPM_P1;HPM_P2
2021/12/18 00:01:54;;;;;;;;;31.75;30.50;;;;;8.39;64.40;103097.53;4961291;28;46334;-54
2021/12/18 00:04:20;;;;;;;;;38.25;34.00;;;;;8.37;64.36;103089.66;4962633;28;46931;-54
2021/12/18 00:06:45;;;;;;;;;38.00;32.75;;;;;8.37;64.28;103094.88;4962281;28;45810;-51
2021/12/18 00:09:11;;;;;;;;;40.00;35.75;;;;;8.36;64.36;103089.59;4961869;28;45909;-55
2021/12/18 00:11:36;;;;;;;;;26.00;23.25;;;;;8.34;64.11;103081.69;4957988;28;45637;-55
2021/12/18 00:14:02;;;;;;;;;41.50;36.25;;;;;8.32;64.41;103080.75;4966498;28;46326;-55
2021/12/18 00:16:27;;;;;;;;;35.25;34.00;;;;;8.32;64.14;103088.59;4965269;28;45381;-55
2021/12/18 00:18:56;;;;;;;;;38.75;34.00;;;;;8.29;64.19;103080.66;4962643;28;45426;-53
2021/12/18 00:21:22;;;;;;;;;39.75;34.25;;;;;8.28;64.35;103085.00;4960786;28;45537;-55
2021/12/18 00:23:48;;;;;;;;;33.50;31.50;;;;;8.27;64.37;103083.19;4960705;28;47036;-54
2021/12/18 00:26:14;;;;;;;;;43.00;36.50;;;;;8.27;64.36;103082.34;4961702;28;45340;-54
2021/12/18 00:28:39;;;;;;;;;34.25;32.50;;;;;8.25;64.37;103082.28;4965510;28;45382;-55
2021/12/18 00:31:05;;;;;;;;;33.50;31.50;;;;;8.24;64.53;103083.13;4966645;28;45414;-55
2021/12/18 00:33:31;;;;;;;;;33.50;29.75;;;;;8.24;64.34;103077.00;4961366;28;45640;-54
2021/12/18 00:35:57;;;;;;;;;34.75;31.75;;;;;8.21;64.22;103077.75;4961187;28;45616;-54
2021/12/18 00:38:28;;;;;;;;;34.25;32.75;;;;;8.20;64.48;103080.34;4944070;28;45794;-54
2021/12/18 00:43:34;;;;;;;;;33.50;31.25;;;;;8.16;64.32;103075.84;4963635;28;46488;-54
2021/12/18 00:46:00;;;;;;;;;34.50;29.50;;;;;8.13;64.41;103074.91;4966990;28;45512;-55
2021/12/18 00:48:25;;;;;;;;;33.00;29.00;;;;;8.13;64.45;103068.78;4960098;28;45510;-54
2021/12/18 00:50:51;;;;;;;;;30.75;27.50;;;;;8.09;64.42;103064.28;4969832;28;45460;-55
2021/12/18 00:53:17;;;;;;;;;32.50;28.50;;;;;8.10;64.37;103066.94;4963011;28;45379;-54
2021/12/18 00:55:43;;;;;;;;;31.00;27.25;;;;;8.08;64.40;103058.13;4960872;28;45240;-54
2021/12/18 00:58:09;;;;;;;;;36.50;32.50;;;;;8.09;64.47;103061.66;4960951;28;45259;-55
2021/12/18 01:00:37;;;;;;;;;33.00;29.50;;;;;8.05;64.45;103059.75;4961273;28;45219;-54
2021/12/18 01:03:03;;;;;;;;;31.50;27.00;;;;;8.06;64.31;103057.22;4960743;28;45433;-53
2021/12/18 01:05:31;;;;;;;;;31.00;26.75;;;;;8.04;64.46;103064.13;4961296;28;45370;-55
2021/12/18 01:07:58;;;;;;;;;32.75;31.00;;;;;8.04;64.41;103074.59;4943682;28;45469;-54
2021/12/18 01:13:16;;;;;;;;;34.00;29.50;;;;;8.01;64.46;103071.84;4945753;28;46182;-56
2021/12/18 01:15:48;;;;;;;;;32.25;27.00;;;;;8.00;64.16;103070.09;4943432;28;45412;-55
2021/12/18 01:23:42;;;;;;;;;36.50;28.00;;;;;7.96;64.50;103081.28;4965985;28;45358;-55
2021/12/18 01:26:07;;;;;;;;;34.75;30.75;;;;;7.95;64.27;103076.91;4960838;28;45465;-54
2021/12/18 01:28:33;;;;;;;;;29.75;25.25;;;;;7.95;64.34;103071.69;4943507;28;45376;-54
2021/12/18 01:31:00;;;;;;;;;33.75;28.50;;;;;7.94;64.22;103072.50;4960172;28;45514;-52
2021/12/18 01:33:26;;;;;;;;;30.25;29.00;;;;;7.93;64.40;103083.81;4960992;28;45451;-54
2021/12/18 01:35:53;;;;;;;;;30.00;27.50;;;;;7.92;64.38;103084.66;4961005;28;45326;-55
2021/12/18 01:38:20;;;;;;;;;31.50;25.00;;;;;7.90;64.37;103088.94;4970027;28;45320;-55
2021/12/18 01:40:46;;;;;;;;;32.00;27.25;;;;;7.89;64.39;103079.31;4960406;28;45505;-55
2021/12/18 01:51:46;;;;;;;;;35.75;26.75;;;;;7.83;64.55;103087.84;4960344;28;45389;-55
2021/12/18 01:54:12;;;;;;;;;27.25;25.50;;;;;7.83;63.95;103086.97;4942750;28;46286;-55
2021/12/18 01:56:38;;;;;;;;;28.75;26.75;;;;;7.81;64.38;103092.13;4960703;28;45465;-51
2021/12/18 01:59:04;;;;;;;;;35.50;28.25;;;;;7.80;64.95;103082.50;4966530;28;45518;-54
2021/12/18 02:01:29;;;;;;;;;35.50;28.75;;;;;7.77;64.33;103085.91;4959969;28;45561;-55
2021/12/18 02:03:54;;;;;;;;;29.50;26.25;;;;;7.76;64.45;103081.50;4965090;28;46181;-54
2021/12/18 02:06:22;;;;;;;;;28.50;26.50;;;;;7.75;64.54;103081.47;4960273;28;45409;-55
2021/12/18 02:08:48;;;;;;;;;32.25;28.50;;;;;7.73;64.54;103080.50;4960221;28;45256;-56
2021/12/18 02:21:51;;;;;;;;;32.75;27.00;;;;;7.62;64.48;103080.13;4959695;28;45161;-54
2021/12/18 02:24:17;;;;;;;;;30.00;26.50;;;;;7.61;64.19;103089.72;4926669;28;45430;-54
2021/12/18 02:26:42;;;;;;;;;36.00;31.25;;;;;7.60;64.41;103087.06;4960034;28;45310;-55
2021/12/18 02:29:12;;;;;;;;;27.50;24.50;;;;;7.56;64.44;103077.28;4964175;28;45296;-54
2021/12/18 02:31:38;;;;;;;;;29.00;24.75;;;;;7.55;64.30;103072.91;4966502;28;45833;-55
2021/12/18 02:34:03;;;;;;;;;34.25;27.50;;;;;7.53;64.28;103070.22;4943146;28;46178;-54
2021/12/18 02:36:29;;;;;;;;;32.75;28.50;;;;;7.49;64.24;103074.44;4959906;28;45351;-54
2021/12/18 02:43:53;;;;;;;;;30.50;26.00;;;;;7.47;64.42;103077.84;4964178;28;46321;-55
2021/12/18 02:46:20;;;;;;;;;34.75;28.50;;;;;7.46;64.38;103087.44;4963578;28;45458;-55
2021/12/18 02:48:53;;;;;;;;;26.50;25.25;;;;;7.43;64.39;103069.03;4959797;28;45489;-54
2021/12/18 02:51:20;;;;;;;;;30.25;28.50;;;;;7.43;64.55;103070.72;4970893;28;45466;-55
2021/12/18 02:53:48;;;;;;;;;31.25;23.50;;;;;7.42;64.39;103080.31;4941167;28;48303;-54
2021/12/18 02:56:15;;;;;;;;;32.00;28.50;;;;;7.41;64.26;103077.63;4959564;28;45222;-55
2021/12/18 02:58:45;;;;;;;;;25.25;23.25;;;;;7.41;64.46;103072.38;4974196;28;45266;-54
2021/12/18 03:01:16;;;;;;;;;31.25;29.25;;;;;7.39;64.26;103067.09;4963425;28;45355;-55
2021/12/18 03:03:42;;;;;;;;;31.00;28.75;;;;;7.37;64.25;103074.03;4942253;28;47990;-54
2021/12/18 03:06:30;;;;;;;;;31.50;28.75;;;;;7.34;64.39;103066.06;4959112;28;45386;-55
2021/12/18 03:24:36;;;;;;;;;32.00;28.75;;;;;7.21;64.56;103072.56;4968677;28;46116;-56
2021/12/18 03:27:01;;;;;;;;;31.50;29.00;;;;;7.22;64.35;103076.97;4974506;28;45447;-57
2021/12/18 03:29:27;;;;;;;;;38.50;32.50;;;;;7.22;64.56;103073.44;4966950;28;45354;-55
2021/12/18 03:31:53;;;;;;;;;35.75;31.00;;;;;7.20;64.51;103072.53;4961886;28;45445;-52
2021/12/18 03:34:18;;;;;;;;;33.00;31.50;;;;;7.16;64.47;103072.38;4966907;28;46717;-49
2021/12/18 03:36:43;;;;;;;;;33.75;32.00;;;;;7.19;64.47;103078.59;4967866;28;45322;-53
2021/12/18 03:39:09;;;;;;;;;31.75;31.25;;;;;7.18;64.42;103082.91;4962383;28;45330;-52
2021/12/18 03:41:34;;;;;;;;;42.00;36.50;;;;;7.16;64.40;103069.78;4962123;28;45315;-53
2021/12/18 03:44:00;;;;;;;;;33.00;30.25;;;;;7.15;64.34;103075.84;4961204;28;46188;-53
2021/12/18 03:46:25;;;;;;;;;35.25;30.50;;;;;7.14;64.54;103066.22;4944473;28;45287;-53
2021/12/18 03:48:51;;;;;;;;;35.75;34.00;;;;;7.13;64.54;103069.69;4962207;28;45346;-51
2021/12/18 03:51:16;;;;;;;;;43.25;32.50;;;;;7.13;64.46;103072.28;4962153;28;45334;-52
2021/12/18 03:53:42;;;;;;;;;34.00;30.50;;;;;7.12;64.56;103067.00;4969651;28;46017;-52
2021/12/18 03:56:07;;;;;;;;;39.00;35.25;;;;;7.11;64.51;103066.09;4967525;28;45442;-53
2021/12/18 03:58:32;;;;;;;;;36.00;31.00;;;;;7.11;64.47;103063.50;4962337;28;45372;-51
2021/12/18 04:00:58;;;;;;;;;37.25;35.00;;;;;7.09;64.56;103067.75;4961691;28;45402;-52
2021/12/18 04:03:23;;;;;;;;;42.50;30.25;;;;;7.09;64.59;103070.38;4962102;28;46389;-52
2021/12/18 04:05:49;;;;;;;;;41.25;35.50;;;;;7.06;64.55;103065.03;4961717;28;45384;-52
2021/12/18 04:08:15;;;;;;;;;35.25;29.75;;;;;7.05;64.42;103057.16;4962250;28;45293;-50
2021/12/18 04:10:41;;;;;;;;;35.50;31.75;;;;;7.07;64.58;103063.31;4961776;28;45350;-53
2021/12/18 04:13:08;;;;;;;;;45.50;35.00;;;;;7.06;64.55;103061.53;4962386;28;45303;-51
2021/12/18 04:15:34;;;;;;;;;32.25;29.25;;;;;7.05;64.60;103075.44;4971368;28;45248;-50
2021/12/18 04:17:59;;;;;;;;;32.50;29.25;;;;;7.06;64.61;103062.44;4943809;28;45387;-53
2021/12/18 04:20:25;;;;;;;;;39.00;33.25;;;;;7.07;64.71;103066.81;4943363;28;45724;-49
2021/12/18 04:22:51;;;;;;;;;37.75;32.25;;;;;7.08;64.86;103065.09;4961978;28;46103;-53
2021/12/18 04:25:17;;;;;;;;;39.75;31.50;;;;;7.09;64.91;103059.03;4963899;28;46684;-51
2021/12/18 04:27:42;;;;;;;;;45.00;34.50;;;;;7.07;64.74;103058.97;4969386;28;45425;-53
2021/12/18 04:30:08;;;;;;;;;39.50;32.75;;;;;7.11;64.93;103067.84;4965597;28;45433;-51
2021/12/18 04:32:33;;;;;;;;;28.00;23.00;;;;;7.11;64.89;103058.25;4944121;28;47095;-53
2021/12/18 04:34:59;;;;;;;;;40.25;33.75;;;;;7.15;65.07;103059.25;4961423;28;45486;-48
2021/12/18 04:37:24;;;;;;;;;33.00;29.00;;;;;7.15;64.86;103057.53;4944193;28;45289;-52
2021/12/18 04:39:51;;;;;;;;;29.25;26.75;;;;;7.19;64.99;103062.88;4964527;28;45374;-53
2021/12/18 04:42:17;;;;;;;;;38.75;34.00;;;;;7.21;64.88;103058.59;4961474;28;45311;-53
2021/12/18 04:44:42;;;;;;;;;35.25;28.75;;;;;7.23;64.69;103063.06;4961149;28;45242;-53
2021/12/18 04:47:07;;;;;;;;;44.25;36.75;;;;;7.24;64.87;103056.97;4961398;28;45430;-52
2021/12/18 04:49:33;;;;;;;;;33.50;31.00;;;;;7.27;65.08;103066.66;4944003;28;45479;-53
2021/12/18 04:51:58;;;;;;;;;36.25;32.50;;;;;7.31;64.94;103065.97;4961025;28;45267;-50
2021/12/18 04:54:24;;;;;;;;;40.00;33.25;;;;;7.30;65.20;103061.56;4960639;28;45750;-52
2021/12/18 04:56:49;;;;;;;;;34.00;29.25;;;;;7.31;65.12;103073.81;4953459;28;45387;-53
2021/12/18 04:59:14;;;;;;;;;40.75;34.75;;;;;7.32;65.25;103073.84;4961378;28;45429;-53
2021/12/18 05:01:40;;;;;;;;;33.25;31.00;;;;;7.36;65.21;103079.19;4944093;28;48145;-51
2021/12/18 05:04:10;;;;;;;;;37.00;31.00;;;;;7.37;65.33;103087.13;4943123;28;45395;-52
2021/12/18 05:06:38;;;;;;;;;31.25;29.75;;;;;7.37;65.15;103089.72;4961380;28;45311;-53
2021/12/18 05:09:04;;;;;;;;;40.25;30.50;;;;;7.40;65.25;103078.47;4960811;28;45325;-51
2021/12/18 05:11:30;;;;;;;;;36.00;32.00;;;;;7.44;65.28;103091.72;4967094;28;45276;-53
2021/12/18 05:13:55;;;;;;;;;34.50;28.25;;;;;7.48;65.05;103090.09;4963770;28;45239;-53
2021/12/18 05:16:21;;;;;;;;;36.50;31.75;;;;;7.51;65.29;103087.59;4965986;28;45429;-54
2021/12/18 05:18:46;;;;;;;;;36.50;34.00;;;;;7.49;65.29;103079.69;4960681;28;45444;-52
2021/12/18 05:21:12;;;;;;;;;35.00;30.00;;;;;7.55;65.34;103089.50;4964090;28;46288;-52
2021/12/18 05:23:37;;;;;;;;;31.50;30.25;;;;;7.57;65.04;103089.53;4965679;28;45459;-52
2021/12/18 05:26:02;;;;;;;;;33.25;32.50;;;;;7.59;65.36;103094.00;4943071;28;45486;-50
2021/12/18 05:28:28;;;;;;;;;35.50;29.00;;;;;7.61;65.26;103091.41;4943374;28;45525;-53
2021/12/18 05:30:53;;;;;;;;;31.50;29.75;;;;;7.61;65.16;103088.81;4961208;28;45899;-53
2021/12/18 05:33:18;;;;;;;;;38.25;34.50;;;;;7.65;65.26;103090.72;4960827;28;45509;-53
2021/12/18 05:35:44;;;;;;;;;40.50;33.25;;;;;7.68;65.46;103090.81;4960748;28;45942;-51
2021/12/18 05:38:09;;;;;;;;;26.00;23.50;;;;;7.70;65.36;103089.16;4960438;28;45484;-53
2021/12/18 05:40:37;;;;;;;;;35.25;32.75;;;;;7.72;65.31;103086.56;4960502;28;46227;-53
2021/12/18 05:43:03;;;;;;;;;30.50;25.25;;;;;7.75;65.27;103091.94;4960090;28;45317;-52
2021/12/18 05:45:29;;;;;;;;;33.50;25.50;;;;;7.75;65.36;103092.81;4966169;28;45468;-53
2021/12/18 05:47:54;;;;;;;;;42.75;31.25;;;;;7.73;65.31;103086.63;4974889;28;45240;-53
2021/12/18 05:50:21;;;;;;;;;28.50;25.75;;;;;7.70;65.43;103078.69;4960567;28;46214;-52
2021/12/18 05:52:47;;;;;;;;;39.75;32.00;;;;;7.76;65.52;103085.84;4967583;28;45450;-53
2021/12/18 05:55:15;;;;;;;;;31.50;26.25;;;;;7.78;65.38;103085.06;4964539;28;45366;-54
2021/12/18 05:57:40;;;;;;;;;37.00;33.75;;;;;7.80;65.55;103093.00;4961325;28;45442;-53
2021/12/18 06:00:08;;;;;;;;;37.50;32.50;;;;;7.76;65.32;103071.03;4942133;28;46158;-54
2021/12/18 06:02:33;;;;;;;;;35.00;31.50;;;;;7.83;65.54;103076.50;4965304;28;45276;-54
2021/12/18 06:04:58;;;;;;;;;34.50;30.75;;;;;7.84;65.41;103065.19;4961927;28;45351;-52
2021/12/18 06:07:32;;;;;;;;;26.50;23.75;;;;;7.86;65.42;103069.66;4964065;28;45233;-53
2021/12/18 06:09:59;;;;;;;;;32.00;30.75;;;;;7.89;65.30;103071.47;4959512;28;46000;-53
2021/12/18 06:12:25;;;;;;;;;42.75;34.75;;;;;7.90;65.29;103068.00;4927290;28;45493;-51
2021/12/18 06:14:50;;;;;;;;;36.00;26.75;;;;;7.87;65.48;103065.28;4959855;28;45348;-52
2021/12/18 06:17:16;;;;;;;;;28.50;25.50;;;;;7.90;65.37;103071.53;4960040;28;45455;-53
2021/12/18 06:19:41;;;;;;;;;30.75;27.75;;;;;7.90;65.19;103068.91;4960251;28;46408;-53
2021/12/18 06:22:07;;;;;;;;;35.25;27.25;;;;;7.91;65.37;103072.41;4962362;28;45311;-52
2021/12/18 06:24:33;;;;;;;;;34.75;30.00;;;;;7.90;65.22;103074.13;4970986;28;45360;-52
2021/12/18 06:26:58;;;;;;;;;36.50;32.00;;;;;7.91;65.03;103069.78;4962838;28;45544;-52
2021/12/18 06:29:23;;;;;;;;;37.00;29.25;;;;;7.89;65.25;103067.13;4963034;28;46032;-51
2021/12/18 06:31:49;;;;;;;;;37.00;32.75;;;;;7.90;64.95;103068.91;4957992;28;45930;-54
2021/12/18 06:34:16;;;;;;;;;38.50;30.50;;;;;7.89;65.10;103063.63;4960052;28;45479;-53
2021/12/18 06:36:41;;;;;;;;;37.75;28.75;;;;;7.88;65.01;103065.31;4959804;28;45518;-54
2021/12/18 06:39:07;;;;;;;;;39.25;34.00;;;;;7.87;65.13;103067.91;4970488;28;45330;-54
2021/12/18 06:41:33;;;;;;;;;36.50;33.00;;;;;7.85;65.14;103073.09;4959622;28;45189;-54
2021/12/18 06:43:59;;;;;;;;;38.75;33.00;;;;;7.83;64.89;103073.88;4962701;28;45442;-54
2021/12/18 06:46:24;;;;;;;;;32.50;31.00;;;;;7.81;65.00;103072.09;4963045;28;45534;-52
2021/12/18 06:48:49;;;;;;;;;34.75;31.75;;;;;7.80;64.99;103070.31;4962883;28;46264;-53
2021/12/18 06:51:19;;;;;;;;;35.75;29.75;;;;;7.79;64.93;103072.88;4965819;28;45233;-54
2021/12/18 06:53:45;;;;;;;;;38.50;34.00;;;;;7.77;64.92;103077.16;4945163;28;45412;-52
2021/12/18 06:56:10;;;;;;;;;33.75;30.75;;;;;7.72;64.82;103069.16;4962474;28;45462;-54
2021/12/18 06:58:36;;;;;;;;;35.75;27.00;;;;;7.72;65.01;103071.78;4945543;28;47127;-52
2021/12/18 07:01:02;;;;;;;;;38.00;31.50;;;;;7.71;64.73;103072.63;4965969;28;45490;-54
2021/12/18 07:03:27;;;;;;;;;26.00;21.50;;;;;7.67;64.86;103073.31;4963364;28;45432;-52
2021/12/18 07:05:52;;;;;;;;;34.50;29.00;;;;;7.66;65.03;103084.66;4970075;28;45387;-54
2021/12/18 07:08:18;;;;;;;;;36.00;33.25;;;;;7.61;65.05;103075.72;4963032;28;46105;-54
2021/12/18 07:10:44;;;;;;;;;37.25;33.00;;;;;7.62;64.91;103074.88;4962471;28;45313;-53
2021/12/18 07:13:09;;;;;;;;;35.00;30.50;;;;;7.59;64.95;103082.66;4962844;28;45324;-53
2021/12/18 07:15:35;;;;;;;;;29.00;25.75;;;;;7.56;64.91;103075.56;4963012;28;45502;-51
2021/12/18 07:18:00;;;;;;;;;32.00;29.75;;;;;7.57;64.87;103076.47;4963830;28;46231;-51
2021/12/18 07:20:27;;;;;;;;;34.25;29.75;;;;;7.55;64.79;103080.75;4962808;28;45453;-53
2021/12/18 07:22:53;;;;;;;;;38.00;34.25;;;;;7.53;64.84;103071.97;4962519;28;45383;-51
2021/12/18 07:25:19;;;;;;;;;31.75;27.75;;;;;7.51;64.99;103069.28;4962481;28;45606;-53
2021/12/18 07:27:44;;;;;;;;;33.50;31.50;;;;;7.48;64.68;103069.16;4970072;28;45426;-51
2021/12/18 07:30:11;;;;;;;;;38.50;32.25;;;;;7.48;64.82;103082.25;4970245;28;45470;-53
2021/12/18 07:32:37;;;;;;;;;38.75;33.50;;;;;7.46;64.86;103082.19;4963071;28;45389;-54
2021/12/18 07:35:03;;;;;;;;;38.75;34.25;;;;;7.45;64.91;103088.25;4962090;28;45363;-55
2021/12/18 07:37:29;;;;;;;;;35.75;30.25;;;;;7.43;64.91;103079.50;4968920;28;45424;-53
2021/12/18 07:39:54;;;;;;;;;34.75;32.50;;;;;7.43;64.79;103086.44;4970199;28;45362;-55
2021/12/18 07:42:20;;;;;;;;;29.50;29.00;;;;;7.40;64.85;103095.06;4961782;28;45255;-53
2021/12/18 07:44:46;;;;;;;;;37.00;30.50;;;;;7.38;64.86;103093.22;4962450;28;45428;-54
2021/12/18 07:47:11;;;;;;;;;32.50;30.50;;;;;7.37;65.03;103100.19;4962189;28;45580;-54
2021/12/18 07:49:36;;;;;;;;;37.00;34.50;;;;;7.37;64.80;103096.66;4962252;28;45631;-53
2021/12/18 07:52:04;;;;;;;;;35.75;28.75;;;;;7.34;64.90;103092.22;4965073;28;45410;-54
2021/12/18 07:54:29;;;;;;;;;34.75;29.50;;;;;7.33;64.92;103098.28;4960881;28;45501;-54
2021/12/18 07:56:55;;;;;;;;;46.00;36.75;;;;;7.34;64.73;103096.56;4961923;28;45545;-53
2021/12/18 07:59:20;;;;;;;;;35.25;31.50;;;;;7.32;64.88;103096.53;4962123;28;45520;-56
2021/12/18 08:01:46;;;;;;;;;33.50;30.25;;;;;7.32;64.84;103096.53;4945297;28;45405;-56
2021/12/18 08:04:11;;;;;;;;;37.25;30.00;;;;;7.31;64.87;103095.59;4962289;28;45390;-57
2021/12/18 08:06:36;;;;;;;;;34.75;30.00;;;;;7.30;64.85;103096.44;4944732;28;47050;-56
2021/12/18 08:09:03;;;;;;;;;53.50;39.75;;;;;7.30;65.15;103100.78;4961754;28;45403;-55
2021/12/18 08:11:28;;;;;;;;;30.75;30.25;;;;;7.29;64.98;103094.66;4961601;28;45324;-52
2021/12/18 08:13:53;;;;;;;;;34.75;30.75;;;;;7.29;64.80;103099.00;4962332;28;45482;-55
2021/12/18 08:16:19;;;;;;;;;42.25;34.75;;;;;7.25;65.00;103090.16;4973457;28;46271;-52
2021/12/18 08:18:44;;;;;;;;;35.00;31.25;;;;;7.29;65.10;103093.78;4944016;28;45430;-53
2021/12/18 08:21:10;;;;;;;;;39.50;34.50;;;;;7.30;65.03;103099.06;4944075;28;45349;-54
2021/12/18 08:23:35;;;;;;;;;38.00;34.25;;;;;7.31;64.91;103098.22;4961684;28;45490;-52
2021/12/18 08:26:00;;;;;;;;;34.25;31.00;;;;;7.32;65.02;103096.53;4960841;28;45489;-53
2021/12/18 08:28:26;;;;;;;;;39.50;31.00;;;;;7.34;65.17;103102.69;4961422;28;45481;-53
2021/12/18 08:30:51;;;;;;;;;42.00;35.25;;;;;7.36;64.99;103102.72;4961262;28;45317;-52
2021/12/18 08:33:17;;;;;;;;;37.25;33.75;;;;;7.37;64.95;103107.13;4944323;28;45522;-54
2021/12/18 08:35:42;;;;;;;;;44.00;32.50;;;;;7.38;65.19;103096.72;4953422;28;45338;-52
2021/12/18 08:38:08;;;;;;;;;35.50;32.00;;;;;7.41;65.00;103107.31;4943765;28;45423;-52
2021/12/18 08:40:34;;;;;;;;;37.50;31.50;;;;;7.42;65.02;103106.47;4961746;28;45290;-53
2021/12/18 08:43:00;;;;;;;;;35.50;29.75;;;;;7.46;65.06;103110.09;4960965;28;45549;-49
2021/12/18 08:45:26;;;;;;;;;29.75;28.00;;;;;7.46;65.26;103107.50;4961199;28;46224;-52
2021/12/18 08:47:52;;;;;;;;;33.50;31.00;;;;;7.52;64.92;103105.09;4969079;28;45270;-52
2021/12/18 08:50:19;;;;;;;;;39.25;30.00;;;;;7.54;65.15;103094.69;4954405;28;45522;-55
2021/12/18 08:52:45;;;;;;;;;32.50;27.00;;;;;7.57;65.07;103105.25;4968760;28;45488;-55
2021/12/18 08:55:11;;;;;;;;;37.75;31.50;;;;;7.62;65.11;103115.06;4972290;28;45378;-53
2021/12/18 08:57:37;;;;;;;;;29.00;28.00;;;;;7.64;64.97;103100.28;4971874;28;45385;-54
2021/12/18 09:00:05;;;;;;;;;35.50;32.50;;;;;7.70;64.97;103107.47;4960905;28;45536;-53
2021/12/18 09:02:31;;;;;;;;;41.25;34.75;;;;;7.69;64.92;103096.97;4943823;28;45423;-54
2021/12/18 09:04:56;;;;;;;;;30.25;27.00;;;;;7.84;65.21;103101.84;4960074;28;45800;-55
2021/12/18 09:07:22;;;;;;;;;38.00;32.50;;;;;7.90;65.02;103110.78;4943767;28;45363;-53
2021/12/18 09:09:48;;;;;;;;;29.75;28.00;;;;;7.96;65.25;103105.78;4960644;28;45434;-56
2021/12/18 09:12:13;;;;;;;;;36.00;29.75;;;;;8.02;65.29;103104.19;4943459;28;45522;-56
2021/12/18 09:14:40;;;;;;;;;36.75;32.75;;;;;8.07;65.14;103092.16;4943378;28;45811;-55
2021/12/18 09:17:06;;;;;;;;;36.25;29.00;;;;;8.16;65.37;103097.69;4944462;28;45795;-54
2021/12/18 09:19:31;;;;;;;;;40.75;36.25;;;;;8.23;65.31;103089.19;4943609;28;45481;-55
2021/12/18 09:21:58;;;;;;;;;37.75;32.75;;;;;8.33;65.32;103095.63;4941570;28;45627;-55
2021/12/18 09:24:24;;;;;;;;;32.00;29.75;;;;;8.39;65.49;103097.53;4960620;28;46293;-55
2021/12/18 09:26:50;;;;;;;;;31.75;28.50;;;;;8.45;65.45;103090.78;4949759;28;45437;-52
2021/12/18 09:29:16;;;;;;;;;39.25;31.50;;;;;8.58;65.49;103099.09;4954587;28;45343;-50
2021/12/18 09:31:41;;;;;;;;;37.50;29.25;;;;;8.66;65.47;103087.09;4943626;28;45620;-52
2021/12/18 09:34:07;;;;;;;;;27.75;25.50;;;;;8.74;65.54;103090.84;4960271;28;46498;-50
2021/12/18 09:36:32;;;;;;;;;32.75;30.75;;;;;8.85;65.39;103083.31;4960970;28;45366;-49
2021/12/18 09:38:59;;;;;;;;;34.25;29.00;;;;;9.00;65.67;103087.25;4942793;28;45365;-49
2021/12/18 09:41:24;;;;;;;;;33.75;27.25;;;;;9.09;65.50;103079.63;4943347;28;45494;-52
2021/12/18 09:43:51;;;;;;;;;28.25;26.00;;;;;9.23;65.68;103080.03;4924030;28;47755;-53
2021/12/18 09:46:18;;;;;;;;;32.25;31.75;;;;;9.33;65.65;103076.81;4943205;28;45450;-50
2021/12/18 09:48:45;;;;;;;;;32.25;28.00;;;;;9.48;65.64;103083.38;4961766;28;45383;-50
2021/12/18 09:51:21;;;;;;;;;37.00;31.75;;;;;9.59;65.82;103071.41;4961365;28;45706;-58
2021/12/18 09:53:48;;;;;;;;;33.75;27.75;;;;;9.72;65.81;103077.88;4959892;28;45442;-53
2021/12/18 09:56:14;;;;;;;;;25.25;24.25;;;;;9.84;65.59;103077.34;4960209;28;45272;-51
2021/12/18 09:58:40;;;;;;;;;36.75;30.50;;;;;9.92;65.96;103062.66;4960375;28;45256;-55
2021/12/18 10:01:05;;;;;;;;;29.50;25.50;;;;;10.06;65.65;103066.53;4959786;28;45392;-48
2021/12/18 10:03:42;;;;;;;;;34.75;32.25;;;;;10.20;65.69;103073.84;4943090;28;46553;-50
2021/12/18 10:06:41;;;;;;;;;35.00;30.75;;;;;10.34;65.60;103061.03;4959898;28;45403;-52
2021/12/18 10:09:08;;;;;;;;;31.75;27.00;;;;;10.46;65.73;103060.47;4940613;28;45465;-52
2021/12/18 10:11:43;;;;;;;;;26.25;24.50;;;;;10.56;65.84;103062.47;4959682;28;45340;-55
2021/12/18 10:14:08;;;;;;;;;35.25;31.50;;;;;10.70;65.63;103062.78;4958517;28;45594;-51
2021/12/18 10:16:43;;;;;;;;;28.00;26.00;;;;;10.83;65.64;103058.66;4959204;28;45344;-54
2021/12/18 10:19:24;;;;;;;;;27.25;25.25;;;;;10.96;65.63;103051.94;4959345;28;45371;-54
2021/12/18 10:21:59;;;;;;;;;30.75;28.25;;;;;11.08;65.54;103049.56;4942253;28;45465;-49
2021/12/18 10:24:26;;;;;;;;;29.75;29.00;;;;;11.19;65.66;103050.69;4960475;28;45504;-49
2021/12/18 10:26:52;;;;;;;;;26.25;24.00;;;;;11.33;65.74;103058.84;4945376;28;45321;-52
2021/12/18 10:29:35;;;;;;;;;32.25;28.00;;;;;11.48;65.59;103057.34;4940959;28;45433;-49
2021/12/18 10:32:21;;;;;;;;;26.25;24.50;;;;;11.59;65.69;103052.31;4926130;28;45541;-47
2021/12/18 10:34:59;;;;;;;;;35.00;26.75;;;;;11.74;65.69;103049.06;4941384;28;45259;-51
2021/12/18 10:37:27;;;;;;;;;30.00;25.75;;;;;11.89;65.81;103051.94;4938516;28;45277;-53
2021/12/18 10:39:56;;;;;;;;;32.50;30.00;;;;;12.03;65.75;103057.50;4946537;28;45409;-50
2021/12/18 10:42:24;;;;;;;;;23.25;21.50;;;;;12.15;65.46;103054.16;4941298;28;45587;-52
2021/12/18 10:45:11;;;;;;;;;32.00;28.25;;;;;12.29;65.76;103049.09;4942760;28;46355;-53
2021/12/18 10:47:46;;;;;;;;;27.25;26.25;;;;;12.44;65.49;103053.72;4941160;28;45367;-53
2021/12/18 10:50:23;;;;;;;;;25.50;23.25;;;;;12.59;65.57;103047.78;4941091;28;45401;-52
2021/12/18 10:53:07;;;;;;;;;26.75;26.50;;;;;12.73;65.61;103043.59;4941912;28;45332;-52
2021/12/18 10:55:57;;;;;;;;;25.75;25.50;;;;;12.86;65.22;103039.38;4960291;28;46242;-52
2021/12/18 10:58:28;;;;;;;;;34.00;28.50;;;;;13.01;64.96;103034.25;4960375;28;45250;-52
2021/12/18 11:01:02;;;;;;;;;33.25;27.75;;;;;13.15;65.08;103041.47;4946092;28;45326;-52
2021/12/18 11:03:46;;;;;;;;;33.25;27.75;;;;;13.30;65.35;103038.13;4923676;28;45267;-51
2021/12/18 11:06:26;;;;;;;;;25.00;24.00;;;;;13.44;65.28;103033.91;4940715;28;47162;-48
2021/12/18 11:09:01;;;;;;;;;23.50;22.50;;;;;13.57;65.57;103034.94;4939608;28;45236;-51
2021/12/18 11:14:14;;;;;;;;;30.50;29.75;;;;;13.88;64.82;103026.38;4924844;28;45596;-49
2021/12/18 11:16:43;;;;;;;;;26.50;23.00;;;;;13.99;64.78;103016.78;4921602;28;46944;-50
2021/12/18 11:19:13;;;;;;;;;28.00;25.00;;;;;14.11;64.39;103018.63;4920068;28;45431;-52
2021/12/18 11:21:42;;;;;;;;;31.25;27.50;;;;;14.22;64.07;103011.66;4921730;28;45280;-48
2021/12/18 11:24:09;;;;;;;;;22.75;22.25;;;;;14.33;63.98;103013.50;4919932;28;45439;-48
2021/12/18 11:26:51;;;;;;;;;30.50;24.50;;;;;14.42;64.02;103016.19;4919792;28;47036;-51
2021/12/18 11:29:44;;;;;;;;;25.25;23.25;;;;;14.52;63.78;103019.78;4926930;28;45952;-50
2021/12/18 11:32:12;;;;;;;;;24.50;21.75;;;;;14.57;63.88;103007.47;4942631;28;45269;-51
2021/12/18 11:34:39;;;;;;;;;26.25;22.00;;;;;14.65;64.10;103015.47;4933598;28;45720;-50
2021/12/18 11:37:07;;;;;;;;;23.00;20.75;;;;;14.70;63.59;103008.44;4927610;28;48186;-52
2021/12/18 11:39:35;;;;;;;;;25.00;22.50;;;;;14.78;63.60;103006.72;4932949;28;45346;-53
2021/12/18 11:42:01;;;;;;;;;19.50;17.25;;;;;14.84;63.26;103008.47;4924751;28;45384;-52
2021/12/18 11:44:30;;;;;;;;;20.00;19.50;;;;;14.87;63.49;102996.16;4928048;28;45329;-52
2021/12/18 11:46:57;;;;;;;;;20.25;18.25;;;;;14.91;63.50;102992.63;4924276;28;46269;-52
2021/12/18 11:49:25;;;;;;;;;25.50;20.50;;;;;14.96;63.48;102990.00;4923351;28;45238;-52
2021/12/18 11:52:04;;;;;;;;;19.75;19.00;;;;;15.03;63.49;102985.59;4924496;28;45314;-50
2021/12/18 11:54:51;;;;;;;;;21.25;20.00;;;;;15.09;62.96;102990.91;4924326;28;45329;-51
2021/12/18 11:57:40;;;;;;;;;24.50;22.25;;;;;15.16;62.75;102978.59;4924317;28;46027;-52
2021/12/18 12:00:38;;;;;;;;;24.25;19.50;;;;;15.21;63.25;102979.50;4931068;28;45402;-53
2021/12/18 12:03:07;;;;;;;;;20.00;18.00;;;;;15.27;62.83;102988.31;4925922;28;45439;-53
2021/12/18 12:05:59;;;;;;;;;24.25;21.50;;;;;15.35;63.14;102971.56;4924401;28;45439;-51
2021/12/18 12:08:35;;;;;;;;;20.00;18.00;;;;;15.40;62.67;102972.44;4930380;28;46905;-51
2021/12/18 12:11:17;;;;;;;;;20.00;18.00;;;;;15.47;62.63;102974.22;4949484;28;45426;-49
2021/12/18 12:14:16;;;;;;;;;21.75;20.00;;;;;15.54;62.41;102975.97;4931226;28;45345;-51